Time;durP1;ratioP1;P1;durP2;ratioP2;P2;SDS_P1;SDS_P2;PMS_P1;PMS_P2;Temp;Humidity;BMP_temperature;BMP_pressure;BME280_temperature;BME280_humidity;BME280_pressure;Samples;Min_cycle;Max_cycle;Signal;HPM_P1;HPM_P2
2024/01/30 00:03:02;;;;;;;22.43;12.50;;;;;;;-4.14;100.00;99476.22;6160684;28;20285;-58
2024/01/30 00:06:04;;;;;;;16.73;10.33;;;;;;;-4.25;100.00;99479.56;6148804;28;20226;-58
2024/01/30 00:09:06;;;;;;;21.80;12.10;;;;;;;-4.28;100.00;99478.94;6155867;28;20191;-57
2024/01/30 00:12:08;;;;;;;17.67;11.73;;;;;;;-4.29;100.00;99477.25;6165826;28;20256;-57
2024/01/30 00:15:11;;;;;;;29.87;12.70;;;;;;;-4.29;100.00;99479.88;6158760;28;20226;-57
2024/01/30 00:18:13;;;;;;;21.13;12.97;;;;;;;-4.34;100.00;99479.34;6167572;28;20862;-57
2024/01/30 00:21:15;;;;;;;19.57;11.90;;;;;;;-4.47;100.00;99471.53;6156637;28;20229;-55
2024/01/30 00:24:17;;;;;;;21.43;11.63;;;;;;;-4.44;100.00;99468.72;6153953;28;20727;-57
2024/01/30 00:27:19;;;;;;;21.43;11.93;;;;;;;-4.41;100.00;99477.16;6167030;28;20200;-56
2024/01/30 00:30:21;;;;;;;22.17;12.20;;;;;;;-4.38;100.00;99475.28;6161344;28;20266;-57
2024/01/30 00:33:24;;;;;;;19.43;11.93;;;;;;;-4.32;100.00;99475.72;6165556;28;20210;-57
2024/01/30 00:36:26;;;;;;;17.70;12.63;;;;;;;-4.30;100.00;99486.00;6162721;28;20202;-55
2024/01/30 00:39:28;;;;;;;17.57;11.73;;;;;;;-4.32;100.00;99487.91;6153032;28;20683;-55
2024/01/30 00:42:31;;;;;;;17.87;11.10;;;;;;;-4.27;100.00;99486.66;6161825;28;20276;-57
2024/01/30 00:45:33;;;;;;;17.60;11.83;;;;;;;-4.38;100.00;99489.16;6164831;28;20594;-57
2024/01/30 00:48:36;;;;;;;17.00;11.07;;;;;;;-4.31;100.00;99484.34;6165751;28;20199;-58
2024/01/30 00:51:38;;;;;;;19.77;11.47;;;;;;;-4.45;100.00;99482.66;6157537;28;20207;-57
2024/01/30 00:54:40;;;;;;;20.90;10.80;;;;;;;-4.45;100.00;99480.91;6156059;28;20198;-56
2024/01/30 00:57:42;;;;;;;17.00;10.63;;;;;;;-4.43;100.00;99486.00;6162085;28;20270;-58
2024/01/30 01:00:47;;;;;;;20.03;11.63;;;;;;;-4.35;100.00;99480.28;6159691;28;20198;-57
2024/01/30 01:03:49;;;;;;;20.67;11.63;;;;;;;-4.44;100.00;99477.34;6157952;28;20209;-57
2024/01/30 01:06:51;;;;;;;19.93;12.90;;;;;;;-4.51;100.00;99465.72;6164286;28;20198;-56
2024/01/30 01:09:54;;;;;;;42.07;20.63;;;;;;;-4.48;100.00;99465.50;6154084;28;20195;-57
2024/01/30 01:12:56;;;;;;;17.83;11.40;;;;;;;-4.49;100.00;99461.22;6143403;28;20209;-57
2024/01/30 01:15:59;;;;;;;21.70;12.37;;;;;;;-4.50;100.00;99450.94;6169399;28;20289;-57
2024/01/30 01:19:01;;;;;;;17.07;11.10;;;;;;;-4.47;100.00;99448.13;6159878;28;20199;-56
2024/01/30 01:22:04;;;;;;;17.33;11.80;;;;;;;-4.44;100.00;99456.53;6156261;28;20202;-57
2024/01/30 01:25:10;;;;;;;20.30;10.50;;;;;;;-4.52;100.00;99461.44;6155561;28;20208;-56
2024/01/30 01:28:12;;;;;;;19.40;11.53;;;;;;;-4.39;100.00;99451.03;6159518;28;20205;-56
2024/01/30 01:31:14;;;;;;;17.83;10.87;;;;;;;-4.51;100.00;99444.91;6156096;28;20198;-55
2024/01/30 01:34:17;;;;;;;15.20;10.07;;;;;;;-4.53;100.00;99445.94;6157112;28;20205;-54
2024/01/30 01:37:22;;;;;;;18.90;11.20;;;;;;;-4.55;100.00;99443.44;6157242;28;20190;-55
2024/01/30 01:40:25;;;;;;;18.80;11.47;;;;;;;-4.61;100.00;99424.81;6159899;28;20210;-56
2024/01/30 01:43:27;;;;;;;18.47;10.93;;;;;;;-4.48;100.00;99436.91;6148732;28;20225;-57
2024/01/30 01:46:33;;;;;;;19.13;11.00;;;;;;;-4.54;100.00;99432.09;6158888;28;20723;-56
2024/01/30 01:49:35;;;;;;;22.60;12.37;;;;;;;-4.51;100.00;99437.09;6159297;28;20199;-56
2024/01/30 01:52:40;;;;;;;22.10;12.07;;;;;;;-4.51;100.00;99434.50;6156504;28;20194;-56
2024/01/30 01:55:42;;;;;;;15.30;10.00;;;;;;;-4.34;100.00;99435.94;6158714;28;20191;-57
2024/01/30 01:58:48;;;;;;;17.00;10.53;;;;;;;-4.60;100.00;99429.91;6165414;28;20205;-58
2024/01/30 02:01:52;;;;;;;19.03;10.80;;;;;;;-4.63;100.00;99431.88;6160769;28;20190;-57
2024/01/30 02:04:54;;;;;;;21.90;11.53;;;;;;;-4.59;100.00;99433.34;6164715;28;20217;-57
2024/01/30 02:07:57;;;;;;;19.10;10.47;;;;;;;-4.64;100.00;99431.03;6154707;28;20202;-57
2024/01/30 02:10:59;;;;;;;17.53;10.23;;;;;;;-4.61;100.00;99430.03;6158149;28;20209;-57
2024/01/30 02:14:05;;;;;;;18.20;10.33;;;;;;;-4.69;100.00;99431.34;6151735;28;20191;-56
2024/01/30 02:17:07;;;;;;;17.67;11.10;;;;;;;-4.68;100.00;99420.03;6155150;28;20187;-58
2024/01/30 02:20:10;;;;;;;19.67;11.20;;;;;;;-4.65;100.00;99420.75;6160512;28;20543;-58
2024/01/30 02:23:12;;;;;;;21.70;12.80;;;;;;;-4.69;100.00;99420.13;6140995;28;20207;-58
2024/01/30 02:26:15;;;;;;;18.10;11.23;;;;;;;-4.78;100.00;99423.31;6164953;28;20199;-55
2024/01/30 02:29:17;;;;;;;20.03;10.87;;;;;;;-4.77;100.00;99418.06;6161863;28;20202;-57
2024/01/30 02:32:19;;;;;;;19.10;11.47;;;;;;;-4.83;100.00;99412.41;6158204;28;20694;-55
2024/01/30 02:35:21;;;;;;;16.20;11.00;;;;;;;-4.76;100.00;99413.69;6165001;28;20713;-57
2024/01/30 02:38:26;;;;;;;22.03;11.47;;;;;;;-4.81;100.00;99416.59;6157848;28;20656;-57
2024/01/30 02:41:28;;;;;;;20.43;11.40;;;;;;;-4.71;100.00;99422.00;6166982;28;20201;-58
2024/01/30 02:44:31;;;;;;;20.70;11.57;;;;;;;-4.65;100.00;99410.34;6161485;28;20222;-56
2024/01/30 02:47:33;;;;;;;17.67;10.67;;;;;;;-4.71;100.00;99415.03;6158027;28;20793;-57
2024/01/30 02:50:35;;;;;;;21.37;11.77;;;;;;;-4.73;100.00;99414.31;6162834;28;20819;-57
2024/01/30 02:53:37;;;;;;;21.33;11.13;;;;;;;-4.84;100.00;99411.56;6163437;28;20860;-57
2024/01/30 02:56:39;;;;;;;20.13;11.10;;;;;;;-4.82;100.00;99408.91;6156921;28;20218;-57
2024/01/30 02:59:41;;;;;;;23.00;11.70;;;;;;;-4.85;100.00;99407.31;6160960;28;20194;-57
2024/01/30 03:02:43;;;;;;;17.70;11.03;;;;;;;-4.65;100.00;99413.78;6160927;28;20438;-57
2024/01/30 03:05:46;;;;;;;22.07;11.83;;;;;;;-4.55;100.00;99414.84;6161443;28;20682;-57
2024/01/30 03:08:48;;;;;;;16.43;10.43;;;;;;;-4.76;100.00;99405.88;6166796;28;20263;-56
2024/01/30 03:11:50;;;;;;;17.50;10.77;;;;;;;-4.81;100.00;99411.38;6156375;28;20268;-57
2024/01/30 03:14:52;;;;;;;21.87;12.13;;;;;;;-4.75;100.00;99408.38;6164819;28;20201;-56
2024/01/30 03:17:54;;;;;;;18.10;11.03;;;;;;;-4.87;100.00;99398.81;6163952;28;20240;-57
2024/01/30 03:20:56;;;;;;;17.27;10.63;;;;;;;-4.91;100.00;99399.09;6142633;28;20211;-58
2024/01/30 03:23:59;;;;;;;24.37;12.23;;;;;;;-4.96;100.00;99389.84;6148417;28;20217;-55
2024/01/30 03:27:01;;;;;;;20.20;11.97;;;;;;;-4.91;100.00;99386.94;6158771;28;20198;-56
2024/01/30 03:30:05;;;;;;;19.37;12.47;;;;;;;-4.80;100.00;99407.84;6158827;28;20222;-55
2024/01/30 03:33:07;;;;;;;22.47;13.03;;;;;;;-4.70;100.00;99398.50;6160925;28;20198;-57
2024/01/30 03:36:11;;;;;;;24.27;12.43;;;;;;;-4.89;100.00;99386.81;6163038;28;20186;-56
2024/01/30 03:39:13;;;;;;;19.40;11.60;;;;;;;-4.85;100.00;99393.50;6150971;28;20199;-56
2024/01/30 03:42:15;;;;;;;19.67;12.03;;;;;;;-4.89;100.00;99390.25;6160568;28;20223;-57
2024/01/30 03:45:19;;;;;;;19.03;11.47;;;;;;;-4.89;100.00;99387.66;6162426;28;20579;-57
2024/01/30 03:48:21;;;;;;;22.97;13.07;;;;;;;-4.89;100.00;99390.25;6158445;28;20653;-57
2024/01/30 03:51:23;;;;;;;23.10;13.27;;;;;;;-4.96;100.00;99368.22;6169759;28;20194;-57
2024/01/30 03:54:25;;;;;;;19.30;11.53;;;;;;;-4.92;100.00;99390.47;6166319;28;20327;-55
2024/01/30 03:57:28;;;;;;;17.13;11.90;;;;;;;-4.97;100.00;99393.38;6167642;28;20948;-55
2024/01/30 04:00:30;;;;;;;15.97;10.80;;;;;;;-5.01;100.00;99386.72;6167991;28;20257;-55
2024/01/30 04:03:32;;;;;;;24.97;10.87;;;;;;;-5.05;100.00;99389.63;6167577;28;20325;-54
2024/01/30 04:06:34;;;;;;;16.83;11.33;;;;;;;-4.97;100.00;99388.19;6167413;28;20675;-57
2024/01/30 04:09:38;;;;;;;18.97;11.23;;;;;;;-4.97;100.00;99402.94;6165453;28;20701;-56
2024/01/30 04:12:40;;;;;;;21.50;12.83;;;;;;;-4.89;100.00;99392.84;6161518;28;20194;-57
2024/01/30 04:15:42;;;;;;;22.33;12.43;;;;;;;-4.73;100.00;99400.47;6165343;28;20273;-56
2024/01/30 04:18:44;;;;;;;22.43;11.80;;;;;;;-4.96;100.00;99396.81;6163280;28;20190;-57
2024/01/30 04:21:47;;;;;;;18.93;10.87;;;;;;;-4.98;100.00;99402.09;6161172;28;20210;-57
2024/01/30 04:24:49;;;;;;;19.10;12.03;;;;;;;-5.01;100.00;99406.69;6165982;28;20700;-56
2024/01/30 04:27:51;;;;;;;28.23;12.33;;;;;;;-4.94;100.00;99397.53;6157134;28;20230;-56
2024/01/30 04:30:54;;;;;;;19.07;11.47;;;;;;;-4.98;100.00;99396.06;6161064;28;20206;-57
2024/01/30 04:33:56;;;;;;;18.17;11.93;;;;;;;-4.97;100.00;99397.75;6171096;28;20194;-57
2024/01/30 04:36:58;;;;;;;19.97;12.47;;;;;;;-4.90;100.00;99392.97;6159807;28;20559;-55
2024/01/30 04:40:00;;;;;;;23.10;12.03;;;;;;;-4.99;100.00;99402.19;6153114;28;20194;-56
2024/01/30 04:43:03;;;;;;;21.20;10.83;;;;;;;-5.02;100.00;99395.44;6157688;28;20191;-57
2024/01/30 04:46:05;;;;;;;18.40;12.03;;;;;;;-5.05;100.00;99400.84;6169426;28;20240;-55
2024/01/30 04:49:07;;;;;;;19.23;12.10;;;;;;;-5.02;100.00;99394.63;6164958;28;20630;-57
2024/01/30 04:52:10;;;;;;;19.67;11.77;;;;;;;-5.06;100.00;99401.78;6162160;28;20182;-56
2024/01/30 04:55:12;;;;;;;21.13;11.97;;;;;;;-5.08;100.00;99406.22;6162199;28;20216;-57
2024/01/30 04:58:14;;;;;;;18.43;12.20;;;;;;;-5.04;100.00;99402.50;6144303;28;20266;-57
2024/01/30 05:01:17;;;;;;;21.93;13.87;;;;;;;-5.15;100.00;99394.59;6162828;28;20666;-57
2024/01/30 05:04:20;;;;;;;32.40;18.90;;;;;;;-4.96;100.00;99410.63;6155256;28;20235;-56
2024/01/30 05:07:22;;;;;;;20.20;11.80;;;;;;;-5.04;100.00;99399.91;6163643;28;20300;-57
2024/01/30 05:10:24;;;;;;;23.93;11.47;;;;;;;-5.03;100.00;99403.31;6165711;28;20206;-54
2024/01/30 05:13:27;;;;;;;22.80;12.67;;;;;;;-5.02;100.00;99402.41;6160596;28;20733;-53
2024/01/30 05:16:29;;;;;;;21.37;12.57;;;;;;;-5.08;100.00;99402.78;6161272;28;20321;-51
2024/01/30 05:19:31;;;;;;;16.23;10.27;;;;;;;-5.01;100.00;99391.09;6155425;28;20738;-52
2024/01/30 05:22:33;;;;;;;13.63;10.47;;;;;;;-5.26;100.00;99389.25;6154951;28;20234;-56
2024/01/30 05:25:36;;;;;;;18.90;12.07;;;;;;;-5.13;100.00;99405.69;6162605;28;20661;-55
2024/01/30 05:28:38;;;;;;;17.73;10.13;;;;;;;-5.12;100.00;99411.72;6162730;28;20210;-57
2024/01/30 05:31:40;;;;;;;22.50;11.53;;;;;;;-5.08;100.00;99405.41;6154042;28;20281;-55
2024/01/30 05:34:42;;;;;;;22.77;12.37;;;;;;;-5.13;100.00;99418.69;6160517;28;20193;-57
2024/01/30 05:37:44;;;;;;;18.23;11.37;;;;;;;-5.12;100.00;99411.72;6162561;28;20606;-57
2024/01/30 05:40:46;;;;;;;18.17;10.87;;;;;;;-5.09;100.00;99414.13;6162519;28;20678;-57
2024/01/30 05:43:48;;;;;;;18.90;11.30;;;;;;;-5.15;100.00;99401.53;6163037;28;20346;-57
2024/01/30 05:46:51;;;;;;;19.63;11.13;;;;;;;-5.21;100.00;99407.97;6163542;28;20596;-56
2024/01/30 05:49:53;;;;;;;19.03;11.40;;;;;;;-5.21;100.00;99415.78;6159948;28;20198;-57
2024/01/30 05:52:55;;;;;;;20.63;11.37;;;;;;;-4.97;100.00;99408.16;6168106;28;20194;-57
2024/01/30 05:55:57;;;;;;;21.63;11.70;;;;;;;-5.20;100.00;99409.63;6157298;28;20194;-57
2024/01/30 05:58:59;;;;;;;17.67;10.90;;;;;;;-5.30;100.00;99416.34;6157898;28;20218;-57
2024/01/30 06:02:02;;;;;;;21.13;11.00;;;;;;;-5.33;100.00;99409.59;6164339;28;20205;-57
2024/01/30 06:05:04;;;;;;;20.60;11.90;;;;;;;-5.35;100.00;99415.81;6155822;28;20698;-56
2024/01/30 06:08:06;;;;;;;20.67;11.13;;;;;;;-5.35;100.00;99418.41;6161539;28;20229;-56
2024/01/30 06:11:12;;;;;;;18.67;11.47;;;;;;;-5.52;100.00;99414.28;6162995;28;20217;-56
2024/01/30 06:14:14;;;;;;;20.23;12.67;;;;;;;-5.40;100.00;99429.09;6154442;28;20191;-56
2024/01/30 06:17:16;;;;;;;21.40;12.50;;;;;;;-5.35;100.00;99434.00;6159429;28;20199;-57
2024/01/30 06:20:18;;;;;;;18.43;11.73;;;;;;;-5.50;100.00;99430.63;6149229;28;20205;-56
2024/01/30 06:23:20;;;;;;;18.80;11.90;;;;;;;-5.55;100.00;99433.50;6153865;28;20690;-56
2024/01/30 06:26:23;;;;;;;18.57;11.70;;;;;;;-5.69;100.00;99407.56;6134519;28;20213;-56
2024/01/30 06:29:26;;;;;;;21.87;13.90;;;;;;;-5.38;100.00;99429.00;6163662;28;20284;-54
2024/01/30 06:32:28;;;;;;;20.43;12.00;;;;;;;-5.45;100.00;99432.00;6159763;28;20207;-57
2024/01/30 06:35:30;;;;;;;21.30;12.97;;;;;;;-5.34;100.00;99440.84;6157553;28;20202;-55
2024/01/30 06:38:33;;;;;;;18.80;12.20;;;;;;;-5.50;100.00;99407.25;6160960;28;20700;-56
2024/01/30 06:41:35;;;;;;;19.00;12.20;;;;;;;-5.32;100.00;99444.19;6165893;28;20205;-56
2024/01/30 06:44:37;;;;;;;23.10;13.27;;;;;;;-5.26;100.00;99444.63;6160602;28;20237;-55
2024/01/30 06:47:39;;;;;;;23.57;13.17;;;;;;;-5.00;100.00;99440.34;6162964;28;20210;-57
2024/01/30 06:50:41;;;;;;;24.93;13.27;;;;;;;-5.05;100.00;99438.97;6164963;28;20198;-56
2024/01/30 06:53:43;;;;;;;19.57;13.00;;;;;;;-5.16;100.00;99444.88;6160098;28;20201;-54
2024/01/30 06:56:45;;;;;;;21.03;13.33;;;;;;;-5.16;100.00;99439.69;6148958;28;20659;-57
2024/01/30 06:59:48;;;;;;;27.43;13.20;;;;;;;-5.22;100.00;99440.91;6157722;28;20230;-57
2024/01/30 07:02:50;;;;;;;18.43;12.20;;;;;;;-5.27;100.00;99437.78;6161630;28;20202;-54
2024/01/30 07:05:52;;;;;;;20.70;13.23;;;;;;;-5.11;100.00;99453.22;6156495;28;20216;-51
2024/01/30 07:08:54;;;;;;;20.23;12.30;;;;;;;-5.11;100.00;99455.81;6154544;28;20868;-50
2024/01/30 07:11:58;;;;;;;17.93;12.10;;;;;;;-5.18;100.00;99436.34;6134529;28;20198;-51
2024/01/30 07:15:00;;;;;;;20.37;12.50;;;;;;;-5.01;100.00;99459.47;6162820;28;20194;-53
2024/01/30 07:18:04;;;;;;;19.20;12.13;;;;;;;-4.88;100.00;99464.69;6166338;28;20198;-51
2024/01/30 07:21:06;;;;;;;18.73;12.33;;;;;;;-4.96;100.00;99462.59;6160749;28;20674;-54
2024/01/30 07:24:08;;;;;;;23.87;13.27;;;;;;;-4.78;100.00;99464.91;6166831;28;20197;-55
2024/01/30 07:27:10;;;;;;;18.97;12.27;;;;;;;-4.64;100.00;99449.25;6165383;28;20204;-56
2024/01/30 07:30:13;;;;;;;28.33;17.30;;;;;;;-4.81;100.00;99444.34;6168133;28;20235;-56
2024/01/30 07:33:15;;;;;;;17.70;11.63;;;;;;;-4.63;100.00;99461.34;6167607;28;20538;-57
2024/01/30 07:36:17;;;;;;;22.10;12.73;;;;;;;-4.71;100.00;99468.81;6166001;28;20187;-56
2024/01/30 07:39:19;;;;;;;19.33;11.77;;;;;;;-4.33;100.00;99471.47;6164961;28;20198;-55
2024/01/30 07:42:21;;;;;;;21.33;13.07;;;;;;;-4.56;100.00;99469.56;6142288;28;20205;-58
2024/01/30 07:45:25;;;;;;;19.77;12.53;;;;;;;-4.43;100.00;99466.03;6137721;28;20718;-56
2024/01/30 07:48:27;;;;;;;19.80;13.90;;;;;;;-4.44;100.00;99466.13;6163685;28;20194;-56
2024/01/30 07:51:31;;;;;;;27.80;16.90;;;;;;;-4.27;100.00;99472.81;6165038;28;20503;-58
2024/01/30 07:54:33;;;;;;;20.50;13.13;;;;;;;-4.02;100.00;99449.38;6161038;28;20195;-56
2024/01/30 07:57:55;;;;;;;24.53;14.37;;;;;;;-4.10;100.00;99464.66;6165618;28;20207;-56
2024/01/30 08:00:58;;;;;;;20.57;13.67;;;;;;;-3.80;100.00;99445.25;6170492;28;20198;-56
2024/01/30 08:04:00;;;;;;;20.43;13.10;;;;;;;-3.91;100.00;99464.25;6160985;28;20669;-58
2024/01/30 08:07:03;;;;;;;18.17;12.53;;;;;;;-4.04;100.00;99466.00;6168712;28;20849;-57
2024/01/30 08:10:06;;;;;;;17.27;11.87;;;;;;;-3.97;100.00;99477.69;6158506;28;20897;-56
2024/01/30 08:13:08;;;;;;;20.07;14.00;;;;;;;-3.93;100.00;99477.38;6163706;28;20553;-57
2024/01/30 08:16:11;;;;;;;22.47;12.83;;;;;;;-3.95;100.00;99481.84;6164466;28;20202;-57
2024/01/30 08:19:16;;;;;;;23.13;13.70;;;;;;;-3.84;100.00;99482.88;6148403;28;20205;-56
2024/01/30 08:22:18;;;;;;;24.30;15.50;;;;;;;-3.79;100.00;99491.19;6152710;28;20205;-55
2024/01/30 08:25:21;;;;;;;24.67;14.53;;;;;;;-3.76;100.00;99491.00;6147463;28;20218;-57
2024/01/30 08:28:24;;;;;;;22.33;13.40;;;;;;;-3.66;100.00;99492.00;6165017;28;20207;-56
2024/01/30 08:31:27;;;;;;;20.57;13.37;;;;;;;-3.50;100.00;99490.00;6163360;28;20214;-57
2024/01/30 08:34:29;;;;;;;20.23;12.97;;;;;;;-3.47;100.00;99483.75;6141088;28;20708;-56
2024/01/30 08:37:31;;;;;;;20.33;13.60;;;;;;;-3.35;100.00;99487.25;6151686;28;20205;-57
2024/01/30 08:40:34;;;;;;;25.50;15.17;;;;;;;-3.21;100.00;99485.31;6162772;28;20194;-57
2024/01/30 08:43:37;;;;;;;27.43;15.47;;;;;;;-3.09;100.00;99482.78;6145156;28;20202;-57
2024/01/30 08:46:39;;;;;;;25.67;15.47;;;;;;;-2.96;100.00;99486.97;6160038;28;20230;-57
2024/01/30 08:49:43;;;;;;;26.90;13.80;;;;;;;-2.83;100.00;99478.28;6160685;28;20202;-57
2024/01/30 08:52:45;;;;;;;22.90;14.97;;;;;;;-2.75;100.00;99473.34;6161281;28;20197;-56
2024/01/30 08:55:48;;;;;;;23.33;15.20;;;;;;;-2.54;100.00;99470.91;6165692;28;20191;-58
2024/01/30 08:58:51;;;;;;;25.70;15.87;;;;;;;-2.21;100.00;99480.59;6157048;28;20202;-55
2024/01/30 09:01:54;;;;;;;23.67;15.73;;;;;;;-1.94;100.00;99481.09;6161488;28;20194;-57
2024/01/30 09:05:12;;;;;;;27.23;16.67;;;;;;;-1.56;100.00;99482.50;6141202;28;20225;-54
2024/01/30 09:08:14;;;;;;;27.20;17.70;;;;;;;-1.27;100.00;99484.63;6164023;28;20201;-55
2024/01/30 09:11:17;;;;;;;29.80;18.33;;;;;;;-1.07;100.00;99489.91;6149451;28;20197;-55
2024/01/30 09:14:19;;;;;;;30.73;19.83;;;;;;;-0.77;100.00;99493.63;6158590;28;20215;-53
2024/01/30 09:17:21;;;;;;;29.17;19.87;;;;;;;-0.60;100.00;99484.38;6157140;28;20198;-55
2024/01/30 09:20:24;;;;;;;26.87;18.57;;;;;;;-0.33;100.00;99483.88;6160163;28;20269;-56
2024/01/30 09:23:27;;;;;;;28.20;19.10;;;;;;;-0.13;100.00;99488.28;6160606;28;20222;-56
2024/01/30 09:26:30;;;;;;;30.23;19.97;;;;;;;0.05;100.00;99490.28;6158635;28;20210;-57
2024/01/30 09:29:34;;;;;;;31.10;20.63;;;;;;;0.22;100.00;99487.91;6165793;28;20202;-57
2024/01/30 09:32:36;;;;;;;30.30;19.13;;;;;;;0.44;100.00;99491.28;6163930;28;20259;-58
2024/01/30 09:35:38;;;;;;;25.63;18.37;;;;;;;0.63;100.00;99486.13;6153364;28;20191;-57
2024/01/30 09:38:40;;;;;;;28.47;19.07;;;;;;;0.86;100.00;99499.03;6162934;28;20199;-57
2024/01/30 09:41:48;;;;;;;34.20;19.93;;;;;;;1.05;100.00;99498.22;6161108;28;20205;-57
2024/01/30 09:44:54;;;;;;;27.03;18.37;;;;;;;1.23;100.00;99488.69;6160885;28;20242;-58
2024/01/30 09:47:59;;;;;;;28.87;18.00;;;;;;;1.50;100.00;99501.16;6126109;28;20207;-57
2024/01/30 09:51:02;;;;;;;27.73;17.30;;;;;;;1.67;100.00;99492.53;6145404;28;20573;-58
2024/01/30 09:54:04;;;;;;;24.17;17.57;;;;;;;2.00;100.00;99480.72;6165939;28;20281;-58
2024/01/30 09:57:07;;;;;;;24.90;15.87;;;;;;;2.27;100.00;99487.03;6165182;28;20218;-58
2024/01/30 10:00:10;;;;;;;22.17;15.00;;;;;;;2.32;97.42;99490.88;6142957;28;20203;-56
2024/01/30 10:03:14;;;;;;;24.77;15.27;;;;;;;2.24;96.78;99490.75;6167968;28;20222;-57
2024/01/30 10:06:18;;;;;;;20.73;14.43;;;;;;;2.26;96.70;99485.34;6160008;28;20718;-57
2024/01/30 10:09:22;;;;;;;23.90;14.80;;;;;;;2.37;96.53;99481.75;6161005;28;20204;-57
2024/01/30 10:12:26;;;;;;;24.33;15.50;;;;;;;2.37;95.44;99487.81;6159809;28;20573;-57
2024/01/30 10:15:29;;;;;;;24.40;15.60;;;;;;;2.37;95.49;99474.66;6164351;28;20200;-58
2024/01/30 10:18:31;;;;;;;21.77;14.30;;;;;;;2.46;94.07;99489.56;6156124;28;20293;-57
2024/01/30 10:21:33;;;;;;;25.20;14.37;;;;;;;2.45;94.77;99479.19;6160384;28;20200;-57
2024/01/30 10:24:36;;;;;;;20.13;14.20;;;;;;;2.49;94.72;99485.81;6164143;28;20276;-58
2024/01/30 10:27:39;;;;;;;20.13;13.87;;;;;;;2.58;91.60;99477.06;6157377;28;20243;-58
2024/01/30 10:30:42;;;;;;;20.57;14.00;;;;;;;2.57;91.01;99476.22;6155797;28;20331;-57
2024/01/30 10:33:45;;;;;;;22.13;13.37;;;;;;;2.50;90.68;99458.53;6163597;28;20202;-57
2024/01/30 10:36:53;;;;;;;22.17;13.80;;;;;;;2.67;89.85;99468.28;6164064;28;20547;-58
2024/01/30 10:40:01;;;;;;;21.73;14.07;;;;;;;2.66;89.57;99458.75;6156819;28;20195;-58
2024/01/30 10:43:04;;;;;;;21.10;13.27;;;;;;;2.81;89.41;99462.53;6159874;28;20208;-57
2024/01/30 10:46:19;;;;;;;19.10;12.63;;;;;;;2.84;87.40;99459.59;6155853;28;20723;-57
2024/01/30 10:49:24;;;;;;;23.87;13.63;;;;;;;2.89;87.34;99437.25;6155328;28;20196;-57
2024/01/30 10:52:27;;;;;;;18.83;12.93;;;;;;;3.18;85.88;99464.19;6158768;28;20263;-58
2024/01/30 10:55:31;;;;;;;15.90;12.10;;;;;;;3.34;86.32;99459.06;6161570;28;20671;-56
2024/01/30 10:58:34;;;;;;;15.80;12.50;;;;;;;3.53;82.51;99460.72;6161029;28;20198;-58
2024/01/30 11:01:36;;;;;;;21.07;13.27;;;;;;;3.57;81.40;99440.16;6154847;28;20268;-58
2024/01/30 11:04:41;;;;;;;18.40;12.17;;;;;;;3.64;80.29;99446.47;6159059;28;20273;-56
2024/01/30 11:07:43;;;;;;;17.97;11.70;;;;;;;3.45;79.64;99412.38;6164388;28;20221;-56
2024/01/30 11:10:47;;;;;;;18.03;12.73;;;;;;;3.65;80.45;99442.03;6154039;28;20682;-58
2024/01/30 11:13:50;;;;;;;16.67;12.03;;;;;;;3.84;80.67;99452.34;6157373;28;20662;-58
2024/01/30 11:16:53;;;;;;;18.90;12.03;;;;;;;4.05;78.26;99444.09;6164681;28;20283;-58
2024/01/30 11:19:58;;;;;;;18.67;12.43;;;;;;;4.29;76.87;99444.22;6155569;28;20216;-58
2024/01/30 11:23:05;;;;;;;14.47;10.60;;;;;;;4.35;76.45;99437.50;6154388;28;20198;-58
2024/01/30 11:26:11;;;;;;;19.13;11.83;;;;;;;4.55;74.84;99430.13;6142055;28;20614;-57
2024/01/30 11:29:14;;;;;;;16.87;11.30;;;;;;;4.43;75.17;99428.75;6140010;28;20838;-56
2024/01/30 11:32:23;;;;;;;16.07;11.63;;;;;;;4.50;74.64;99425.34;6160902;28;20293;-58
2024/01/30 11:35:30;;;;;;;14.73;11.10;;;;;;;4.55;74.66;99427.50;6141382;28;20266;-58
2024/01/30 11:38:32;;;;;;;15.73;11.07;;;;;;;4.53;73.84;99422.38;6153936;28;20225;-58
2024/01/30 11:41:37;;;;;;;18.17;11.13;;;;;;;4.51;74.16;99418.25;6159150;28;20269;-58
2024/01/30 11:44:40;;;;;;;15.13;10.00;;;;;;;4.56;74.55;99418.59;6154641;28;20227;-58
2024/01/30 11:47:42;;;;;;;15.23;10.93;;;;;;;4.62;72.81;99416.13;6161083;28;20211;-59
2024/01/30 11:50:46;;;;;;;17.70;11.43;;;;;;;4.61;74.10;99421.56;6162455;28;20222;-58
2024/01/30 11:53:52;;;;;;;21.57;10.93;;;;;;;4.69;74.20;99418.97;6162320;28;20202;-57
2024/01/30 11:56:54;;;;;;;17.13;10.93;;;;;;;4.78;72.83;99418.00;6155898;28;20278;-58
2024/01/30 11:59:56;;;;;;;12.93;9.47;;;;;;;4.87;75.02;99417.00;6165123;28;20643;-57
2024/01/30 12:03:00;;;;;;;15.00;9.37;;;;;;;4.80;74.64;99412.56;6161237;28;20206;-57
2024/01/30 12:06:03;;;;;;;16.00;9.87;;;;;;;5.01;73.41;99420.00;6165761;28;21013;-58
2024/01/30 12:09:08;;;;;;;14.33;9.97;;;;;;;5.03;68.44;99412.75;6162040;28;20219;-57
2024/01/30 12:12:11;;;;;;;18.23;10.17;;;;;;;5.08;66.83;99402.53;6168972;28;20702;-58
2024/01/30 12:15:14;;;;;;;16.40;9.70;;;;;;;5.15;69.15;99406.16;6170975;28;20208;-57
2024/01/30 12:18:19;;;;;;;13.80;8.40;;;;;;;5.16;69.88;99399.88;6163991;28;20250;-58
2024/01/30 12:21:21;;;;;;;13.93;9.47;;;;;;;5.17;69.99;99390.94;6166350;28;20674;-58
2024/01/30 12:24:23;;;;;;;15.33;9.13;;;;;;;5.28;67.33;99381.91;6160390;28;20201;-58
2024/01/30 12:27:26;;;;;;;17.23;9.47;;;;;;;5.09;69.91;99383.03;6161415;28;20220;-59
2024/01/30 12:30:29;;;;;;;15.93;10.27;;;;;;;5.26;68.39;99397.91;6163095;28;20282;-58
2024/01/30 12:33:31;;;;;;;11.83;9.27;;;;;;;5.38;68.36;99388.66;6169034;28;20250;-58
2024/01/30 12:36:34;;;;;;;15.23;9.77;;;;;;;5.40;69.60;99394.59;6167168;28;20564;-58
2024/01/30 12:39:36;;;;;;;13.40;9.17;;;;;;;5.28;69.83;99369.50;6155739;28;20197;-56
2024/01/30 12:42:39;;;;;;;16.47;8.87;;;;;;;5.34;70.96;99386.50;6155210;28;20201;-58
2024/01/30 12:45:42;;;;;;;14.03;9.87;;;;;;;5.39;67.93;99392.13;6162230;28;20244;-59
2024/01/30 12:48:44;;;;;;;12.60;8.47;;;;;;;5.55;67.57;99383.34;6168631;28;20208;-58
2024/01/30 12:51:46;;;;;;;13.30;9.53;;;;;;;5.78;66.44;99384.31;6156176;28;20282;-58
2024/01/30 12:54:49;;;;;;;17.43;9.63;;;;;;;5.57;66.49;99365.50;6162686;28;20571;-58
2024/01/30 12:57:51;;;;;;;14.27;9.03;;;;;;;5.42;69.00;99371.47;6160387;28;20197;-58
2024/01/30 13:00:54;;;;;;;15.73;9.33;;;;;;;5.51;67.15;99371.44;6163769;28;20314;-58
2024/01/30 13:03:58;;;;;;;13.63;8.63;;;;;;;5.15;70.94;99377.91;6155321;28;20226;-58
2024/01/30 13:07:01;;;;;;;12.90;8.77;;;;;;;5.13;69.81;99363.25;6160279;28;20572;-57
2024/01/30 13:10:03;;;;;;;15.30;8.03;;;;;;;4.84;71.74;99358.44;6165396;28;20207;-58
2024/01/30 13:13:06;;;;;;;14.43;9.73;;;;;;;5.18;68.79;99379.41;6144569;28;20202;-58
2024/01/30 13:16:17;;;;;;;14.87;9.87;;;;;;;5.19;70.29;99373.13;6142616;28;20207;-58
2024/01/30 13:19:20;;;;;;;11.93;8.77;;;;;;;5.05;71.68;99376.44;6167589;28;20600;-58
2024/01/30 13:22:22;;;;;;;12.67;8.70;;;;;;;5.13;70.69;99371.16;6163811;28;20228;-57
2024/01/30 13:25:24;;;;;;;12.80;9.00;;;;;;;4.75;73.19;99360.22;6152047;28;20230;-58
2024/01/30 13:28:27;;;;;;;12.50;8.57;;;;;;;4.50;76.40;99377.00;6157284;28;20266;-55
2024/01/30 13:31:30;;;;;;;11.03;8.67;;;;;;;4.37;76.72;99383.56;6164404;28;20203;-57
2024/01/30 13:34:32;;;;;;;13.87;9.40;;;;;;;4.51;75.61;99383.94;6161722;28;20714;-57
2024/01/30 13:37:35;;;;;;;14.93;9.10;;;;;;;4.83;74.64;99385.84;6163662;28;20335;-55
2024/01/30 13:40:37;;;;;;;15.23;9.10;;;;;;;4.87;73.48;99385.31;6160536;28;20198;-58
2024/01/30 13:43:40;;;;;;;11.13;8.43;;;;;;;4.90;73.72;99390.28;6162155;28;20286;-57
2024/01/30 13:46:42;;;;;;;12.40;8.70;;;;;;;4.77;75.18;99383.81;6166434;28;20357;-58
2024/01/30 13:49:46;;;;;;;12.83;9.33;;;;;;;4.71;75.20;99385.31;6158888;28;20294;-58
2024/01/30 13:52:48;;;;;;;12.23;9.50;;;;;;;4.65;75.70;99373.56;6159292;28;20648;-57
2024/01/30 13:55:50;;;;;;;18.20;10.00;;;;;;;4.97;74.54;99379.06;6156125;28;20204;-56
2024/01/30 13:58:53;;;;;;;14.67;9.10;;;;;;;4.87;75.22;99382.69;6166781;28;20198;-58